Time;durP1;ratioP1;P1;durP2;ratioP2;P2;SDS_P1;SDS_P2;PMS_P1;PMS_P2;Temp;Humidity;BMP_temperature;BMP_pressure;BME280_temperature;BME280_humidity;BME280_pressure;Samples;Min_cycle;Max_cycle;Signal;HPM_P1;HPM_P2
2022/09/07 00:01:22;;;;;;;8.15;2.50;;;13.30;99.90;;;;;;5089354;28;20031;-53
2022/09/07 00:03:47;;;;;;;9.50;2.65;;;13.20;99.90;;;;;;5089623;28;20489;-53
2022/09/07 00:06:13;;;;;;;8.85;3.00;;;13.20;99.90;;;;;;5089578;28;20056;-53
2022/09/07 00:08:40;;;;;;;11.73;2.88;;;13.20;99.90;;;;;;5089468;28;20020;-52
2022/09/07 00:11:11;;;;;;;6.97;2.35;;;13.20;99.90;;;;;;5089271;28;20070;-53
2022/09/07 00:13:39;;;;;;;8.43;2.45;;;13.10;99.90;;;;;;5089451;28;20103;-53
2022/09/07 00:16:07;;;;;;;6.72;2.08;;;13.10;99.90;;;;;;5088995;28;20076;-52
2022/09/07 00:18:33;;;;;;;8.43;2.72;;;13.00;99.90;;;;;;5089698;28;20553;-52
2022/09/07 00:21:07;;;;;;;10.25;3.05;;;13.00;99.90;;;;;;5089649;28;20032;-52
2022/09/07 00:23:34;;;;;;;7.72;2.88;;;13.10;99.90;;;;;;5089738;28;20024;-53
2022/09/07 00:26:02;;;;;;;12.00;2.63;;;13.10;99.90;;;;;;5089162;28;20028;-54
2022/09/07 00:28:28;;;;;;;10.35;2.40;;;13.10;99.90;;;;;;5089570;28;20052;-53
2022/09/07 00:30:54;;;;;;;14.50;2.90;;;13.10;99.90;;;;;;5089514;28;20107;-53
2022/09/07 00:33:20;;;;;;;12.35;2.42;;;13.10;99.90;;;;;;5087811;28;20723;-53
2022/09/07 00:35:45;;;;;;;14.75;2.60;;;13.10;99.90;;;;;;5089081;28;20043;-52
2022/09/07 00:38:11;;;;;;;9.00;2.40;;;13.00;99.90;;;;;;5088981;28;20028;-53
2022/09/07 00:40:37;;;;;;;7.75;2.50;;;13.00;99.90;;;;;;5088821;28;20032;-52
2022/09/07 00:43:04;;;;;;;6.40;2.70;;;13.00;99.90;;;;;;5089256;28;20035;-53
2022/09/07 00:45:31;;;;;;;9.60;3.22;;;13.10;99.90;;;;;;5089194;28;20033;-52
2022/09/07 00:48:12;;;;;;;9.07;2.80;;;13.10;99.90;;;;;;5087517;28;20032;-53
2022/09/07 00:50:46;;;;;;;7.93;2.33;;;13.10;99.90;;;;;;5089305;28;20073;-53
2022/09/07 00:53:27;;;;;;;10.70;2.83;;;13.10;99.90;;;;;;5078673;28;20426;-53
2022/09/07 00:55:54;;;;;;;11.13;2.63;;;13.10;99.90;;;;;;5068585;28;20628;-53
2022/09/07 00:58:21;;;;;;;9.88;2.85;;;13.00;99.90;;;;;;5069220;28;20037;-52
2022/09/07 01:00:48;;;;;;;11.75;2.75;;;13.10;99.90;;;;;;5068895;28;20651;-53
2022/09/07 01:03:19;;;;;;;;;;;13.00;99.90;;;;;;5085492;28;20123;-52
2022/09/07 01:05:55;;;;;;;10.43;2.80;;;13.10;99.90;;;;;;5069215;28;19908;-53
2022/09/07 01:08:22;;;;;;;7.90;2.58;;;13.00;99.90;;;;;;5068522;28;20104;-53
2022/09/07 01:10:48;;;;;;;7.68;2.00;;;12.90;99.90;;;;;;5068279;28;20035;-53
2022/09/07 01:13:14;;;;;;;12.10;2.75;;;12.90;99.90;;;;;;5068915;28;20036;-53
2022/09/07 01:16:06;;;;;;;9.05;2.35;;;12.80;99.90;;;;;;5068744;28;20056;-53
2022/09/07 01:19:05;;;;;;;8.23;2.30;;;12.70;99.90;;;;;;5068951;28;20021;-53
2022/09/07 01:22:12;;;;;;;5.40;2.83;;;12.60;99.90;;;;;;5068792;28;20039;-53
2022/09/07 01:25:15;;;;;;;4.57;2.25;;;12.50;99.90;;;;;;5072576;28;20340;-53
2022/09/07 01:27:41;;;;;;;6.15;2.60;;;12.50;99.90;;;;;;5071738;28;20316;-52
2022/09/07 01:30:17;;;;;;;4.78;2.20;;;12.40;99.90;;;;;;5071581;28;20490;-53
2022/09/07 01:33:14;;;;;;;6.93;2.60;;;12.30;99.90;;;;;;5072173;28;20036;-53
2022/09/07 01:36:03;;;;;;;10.00;3.13;;;12.40;99.90;;;;;;5072294;28;20102;-53
2022/09/07 01:38:39;;;;;;;9.88;2.88;;;12.30;99.90;;;;;;5071784;28;20033;-53
2022/09/07 01:41:29;;;;;;;9.55;3.10;;;12.30;99.90;;;;;;5071498;28;20062;-53
2022/09/07 01:44:04;;;;;;;9.98;3.30;;;12.20;99.90;;;;;;5071817;28;20111;-53
2022/09/07 01:46:36;;;;;;;7.38;2.85;;;12.20;99.90;;;;;;5072559;28;20040;-53
2022/09/07 01:49:19;;;;;;;6.38;2.67;;;12.20;99.90;;;;;;5072064;28;20035;-52
2022/09/07 01:51:50;;;;;;;8.30;3.05;;;12.10;99.90;;;;;;5071905;28;20137;-53
2022/09/07 01:54:31;;;;;;;13.52;2.90;;;12.10;99.90;;;;;;5072011;28;20074;-53
2022/09/07 01:57:01;;;;;;;5.65;2.42;;;12.00;99.90;;;;;;5072044;28;20043;-53
2022/09/07 01:59:35;;;;;;;9.32;3.15;;;12.00;99.90;;;;;;5072071;28;20029;-53
2022/09/07 02:02:17;;;;;;;11.00;3.05;;;12.00;99.90;;;;;;5071902;28;20017;-53
2022/09/07 02:04:53;;;;;;;7.20;2.28;;;12.00;99.90;;;;;;5072266;28;20112;-53
2022/09/07 02:07:34;;;;;;;9.38;3.50;;;11.90;99.90;;;;;;5071710;28;20428;-52
2022/09/07 02:10:22;;;;;;;15.68;3.10;;;12.00;99.90;;;;;;5085269;28;20032;-52
2022/09/07 02:12:58;;;;;;;12.60;2.42;;;11.90;99.90;;;;;;5091558;28;20028;-52
2022/09/07 02:15:37;;;;;;;11.52;3.08;;;11.80;99.90;;;;;;5091426;28;20048;-53
2022/09/07 02:18:06;;;;;;;13.40;2.97;;;11.80;99.90;;;;;;5090253;28;20667;-53
2022/09/07 02:20:36;;;;;;;18.08;3.13;;;11.80;99.90;;;;;;5091412;28;20467;-53
2022/09/07 02:23:07;;;;;;;10.35;2.90;;;11.80;99.90;;;;;;5092068;28;20027;-52
2022/09/07 02:25:39;;;;;;;16.27;2.97;;;11.80;99.90;;;;;;5091737;28;20073;-53
2022/09/07 02:28:12;;;;;;;10.45;2.65;;;11.80;99.90;;;;;;5091409;28;20409;-52
2022/09/07 02:30:38;;;;;;;12.32;4.40;;;11.80;99.90;;;;;;5090165;28;20045;-53
2022/09/07 02:33:04;;;;;;;7.63;2.97;;;11.70;99.90;;;;;;5091423;28;20042;-53
2022/09/07 02:35:30;;;;;;;11.30;2.53;;;11.70;99.90;;;;;;5091544;28;20036;-53
2022/09/07 02:37:59;;;;;;;10.52;2.70;;;11.70;99.90;;;;;;5091166;28;20032;-52
2022/09/07 02:40:25;;;;;;;8.95;3.40;;;11.60;99.90;;;;;;5091107;28;20024;-53
2022/09/07 02:42:50;;;;;;;10.95;2.90;;;11.40;99.90;;;;;;5091199;28;20034;-52
2022/09/07 02:45:16;;;;;;;21.92;3.00;;;11.40;99.90;;;;;;5091400;28;20028;-52
2022/09/07 02:48:05;;;;;;;8.25;3.25;;;11.40;99.90;;;;;;5091251;28;20024;-52
2022/09/07 02:50:48;;;;;;;;;;;11.40;99.90;;;;;;5091255;28;20032;-53
2022/09/07 02:53:39;;;;;;;10.82;4.10;;;11.40;99.90;;;;;;5090453;28;19908;-53
2022/09/07 02:56:26;;;;;;;12.15;3.85;;;11.30;99.90;;;;;;5089847;28;20437;-53
2022/09/07 02:59:03;;;;;;;16.10;4.40;;;11.30;99.90;;;;;;5090870;28;20043;-52
2022/09/07 03:01:47;;;;;;;22.63;4.72;;;11.30;99.90;;;;;;5090985;28;20032;-53
2022/09/07 03:04:23;;;;;;;16.63;4.80;;;11.10;99.90;;;;;;5090964;28;20069;-53
2022/09/07 03:06:54;;;;;;;13.88;5.13;;;11.10;99.90;;;;;;5091141;28;20055;-53
2022/09/07 03:09:26;;;;;;;13.35;4.00;;;11.10;99.90;;;;;;5090983;28;20032;-52
2022/09/07 03:11:53;;;;;;;19.73;4.95;;;11.10;99.90;;;;;;5089191;28;20028;-53
2022/09/07 03:14:21;;;;;;;14.20;3.83;;;11.10;99.90;;;;;;5090592;28;20399;-53
2022/09/07 03:16:54;;;;;;;20.80;3.90;;;11.10;99.90;;;;;;5090720;28;20093;-53
2022/09/07 03:19:20;;;;;;;8.00;3.17;;;11.10;99.90;;;;;;5090488;28;20028;-53
2022/09/07 03:21:46;;;;;;;20.42;3.70;;;11.00;99.90;;;;;;5090624;28;20039;-53
2022/09/07 03:24:12;;;;;;;18.67;3.92;;;11.00;99.90;;;;;;5090929;28;20402;-53
2022/09/07 03:26:42;;;;;;;14.70;3.90;;;11.00;99.90;;;;;;5090583;28;20031;-52
2022/09/07 03:29:07;;;;;;;9.70;3.40;;;11.00;99.90;;;;;;5090305;28;20111;-53
2022/09/07 03:31:33;;;;;;;13.18;3.22;;;10.90;99.90;;;;;;5090248;28;20122;-53
2022/09/07 03:33:59;;;;;;;11.65;3.40;;;10.90;99.90;;;;;;5090391;28;20028;-52
2022/09/07 03:36:25;;;;;;;16.60;4.03;;;10.90;99.90;;;;;;5090656;28;20040;-53
2022/09/07 03:38:51;;;;;;;17.25;3.50;;;10.90;99.90;;;;;;5090207;28;20099;-53
2022/09/07 03:41:16;;;;;;;15.48;3.63;;;10.90;99.90;;;;;;5090165;28;20103;-53
2022/09/07 03:43:43;;;;;;;10.55;3.30;;;10.90;99.90;;;;;;5090494;28;20127;-53
2022/09/07 03:46:09;;;;;;;11.85;3.45;;;10.90;99.90;;;;;;5089763;28;20036;-53
2022/09/07 03:48:36;;;;;;;23.63;3.78;;;10.80;99.90;;;;;;5090338;28;20035;-52
2022/09/07 03:51:08;;;;;;;16.00;3.30;;;10.90;99.90;;;;;;5090347;28;20032;-53
2022/09/07 03:53:35;;;;;;;12.38;3.30;;;10.90;99.90;;;;;;5090125;28;20028;-53
2022/09/07 03:56:11;;;;;;;23.33;3.83;;;10.90;99.90;;;;;;5090047;28;20093;-53
2022/09/07 03:58:37;;;;;;;12.57;3.00;;;11.00;99.90;;;;;;5089876;28;20024;-53
2022/09/07 04:01:09;;;;;;;13.05;3.10;;;10.90;99.90;;;;;;5089961;28;20043;-53
2022/09/07 04:03:35;;;;;;;6.90;2.42;;;10.90;99.90;;;;;;5090149;28;20020;-54
2022/09/07 04:06:02;;;;;;;7.80;3.38;;;10.90;99.90;;;;;;5090078;28;20092;-53
2022/09/07 04:08:29;;;;;;;9.93;3.03;;;10.80;99.90;;;;;;5089932;28;20031;-53
2022/09/07 04:10:57;;;;;;;6.65;3.03;;;10.80;99.90;;;;;;5089613;28;20498;-53
2022/09/07 04:13:23;;;;;;;;;;;10.80;99.90;;;;;;5090438;28;20067;-53
2022/09/07 04:15:49;;;;;;;9.15;3.42;;;10.80;99.90;;;;;;5089576;28;20368;-52
2022/09/07 04:18:14;;;;;;;9.43;3.05;;;10.80;99.90;;;;;;5089765;28;20480;-53
2022/09/07 04:20:40;;;;;;;10.40;3.45;;;10.80;99.90;;;;;;5089770;28;20429;-52
2022/09/07 04:23:06;;;;;;;8.35;3.20;;;10.80;99.90;;;;;;5089818;28;20479;-52
2022/09/07 04:25:31;;;;;;;14.13;3.78;;;10.70;99.90;;;;;;5089907;28;20028;-53
2022/09/07 04:27:57;;;;;;;8.40;3.40;;;10.70;99.90;;;;;;5090051;28;20020;-53
2022/09/07 04:30:23;;;;;;;11.20;3.05;;;10.80;99.90;;;;;;5089442;28;20427;-53
2022/09/07 04:32:49;;;;;;;10.23;3.72;;;10.80;99.90;;;;;;5089685;28;20024;-52
2022/09/07 04:35:14;;;;;;;9.30;2.83;;;10.80;99.90;;;;;;5089336;28;20123;-53
2022/09/07 04:37:40;;;;;;;13.30;3.03;;;10.90;99.90;;;;;;5089214;28;20016;-53
2022/09/07 04:40:07;;;;;;;9.00;3.33;;;10.90;99.90;;;;;;5088848;28;20036;-53
2022/09/07 04:42:33;;;;;;;7.40;2.77;;;10.80;99.90;;;;;;5086466;28;20114;-53
2022/09/07 04:44:59;;;;;;;7.93;3.00;;;10.90;99.90;;;;;;5088859;28;20020;-53
2022/09/07 04:47:25;;;;;;;9.52;3.13;;;10.90;99.90;;;;;;5089127;28;20104;-53
2022/09/07 04:49:51;;;;;;;9.45;3.20;;;10.90;99.90;;;;;;5088959;28;20030;-53
2022/09/07 04:52:17;;;;;;;13.20;3.08;;;10.90;99.90;;;;;;5088588;28;20081;-53
2022/09/07 04:54:46;;;;;;;7.10;3.22;;;11.00;99.90;;;;;;5085918;28;20024;-53
2022/09/07 04:57:12;;;;;;;6.45;2.65;;;10.90;99.90;;;;;;5089515;28;20039;-53
2022/09/07 04:59:38;;;;;;;14.90;3.13;;;11.00;99.90;;;;;;5092141;28;20383;-53
2022/09/07 05:02:04;;;;;;;10.00;2.95;;;11.00;99.90;;;;;;5092709;28;20111;-53
2022/09/07 05:04:29;;;;;;;8.43;3.65;;;11.10;99.90;;;;;;5090663;28;20097;-53
2022/09/07 05:06:55;;;;;;;9.80;3.10;;;11.20;99.90;;;;;;5092039;28;20545;-54
2022/09/07 05:09:21;;;;;;;11.65;3.40;;;11.10;99.90;;;;;;5093182;28;20036;-54
2022/09/07 05:11:47;;;;;;;11.60;4.22;;;11.10;99.90;;;;;;5093245;28;20028;-53
2022/09/07 05:14:13;;;;;;;11.63;3.40;;;11.20;99.90;;;;;;5093020;28;20149;-53
2022/09/07 05:16:38;;;;;;;12.10;3.83;;;11.20;99.90;;;;;;5093286;28;20072;-53
2022/09/07 05:19:04;;;;;;;8.30;3.13;;;11.20;99.90;;;;;;5092486;28;20479;-53
2022/09/07 05:21:32;;;;;;;12.15;3.72;;;11.20;99.90;;;;;;5090528;28;20024;-53
2022/09/07 05:23:59;;;;;;;8.18;3.40;;;11.20;99.90;;;;;;5090883;28;20490;-53
2022/09/07 05:26:27;;;;;;;10.45;4.03;;;11.20;99.90;;;;;;5091826;28;20031;-54
2022/09/07 05:28:53;;;;;;;12.82;3.00;;;11.20;99.90;;;;;;5091275;28;20158;-54
2022/09/07 05:31:21;;;;;;;18.45;3.70;;;11.20;99.90;;;;;;5091989;28;20497;-54
2022/09/07 05:33:52;;;;;;;12.00;3.08;;;11.20;99.90;;;;;;5092076;28;20035;-54
2022/09/07 05:36:19;;;;;;;12.10;3.65;;;11.20;99.90;;;;;;5090989;28;20510;-53
2022/09/07 05:38:45;;;;;;;12.13;4.55;;;11.20;99.90;;;;;;5092482;28;20028;-54
2022/09/07 05:41:16;;;;;;;14.38;4.57;;;11.30;99.90;;;;;;5092155;28;20495;-53
2022/09/07 05:43:42;;;;;;;12.65;3.58;;;11.40;99.90;;;;;;5091412;28;20032;-53
2022/09/07 05:46:09;;;;;;;11.57;3.53;;;11.50;99.90;;;;;;5092578;28;20034;-53
2022/09/07 05:48:35;;;;;;;10.93;4.28;;;11.50;99.90;;;;;;5091698;28;20024;-54
2022/09/07 05:51:01;;;;;;;7.05;3.17;;;11.60;99.90;;;;;;5089950;28;20109;-54
2022/09/07 05:53:27;;;;;;;8.52;3.72;;;11.60;99.90;;;;;;5088223;28;20616;-53
2022/09/07 05:55:56;;;;;;;13.57;3.97;;;11.70;99.90;;;;;;5091436;28;20034;-54
2022/09/07 05:58:21;;;;;;;8.45;3.53;;;11.70;99.90;;;;;;5091582;28;20035;-54
2022/09/07 06:00:47;;;;;;;10.75;4.32;;;11.70;99.90;;;;;;5091391;28;20024;-53
2022/09/07 06:03:13;;;;;;;9.20;3.95;;;11.80;99.90;;;;;;5091824;28;20056;-54
2022/09/07 06:05:39;;;;;;;10.50;4.20;;;11.90;99.90;;;;;;5091635;28;20482;-53
2022/09/07 06:08:05;;;;;;;7.93;3.53;;;12.00;99.90;;;;;;5089903;28;20027;-53
2022/09/07 06:10:35;;;;;;;16.42;3.72;;;12.10;99.90;;;;;;5091168;28;20089;-53
2022/09/07 06:13:01;;;;;;;12.82;4.47;;;12.20;99.90;;;;;;5091469;28;20099;-54
2022/09/07 06:15:27;;;;;;;13.43;4.53;;;12.20;99.90;;;;;;5088546;28;20032;-54
2022/09/07 06:17:53;;;;;;;9.55;4.65;;;12.30;99.90;;;;;;5091461;28;20419;-53
2022/09/07 06:20:19;;;;;;;8.48;4.10;;;12.40;99.90;;;;;;5091238;28;20461;-54
2022/09/07 06:22:44;;;;;;;11.20;4.53;;;12.40;99.90;;;;;;5091609;28;20587;-54
2022/09/07 06:25:10;;;;;;;10.02;4.22;;;12.50;99.90;;;;;;5091894;28;20505;-51
2022/09/07 06:27:36;;;;;;;9.57;4.45;;;12.50;99.90;;;;;;5091769;28;20027;-53
2022/09/07 06:30:02;;;;;;;11.43;4.25;;;12.60;99.90;;;;;;5091251;28;20020;-54
2022/09/07 06:32:28;;;;;;;12.27;4.60;;;12.70;99.90;;;;;;5091520;28;20065;-53
2022/09/07 06:34:54;;;;;;;18.20;4.47;;;12.80;99.90;;;;;;5091541;28;20085;-54
2022/09/07 06:37:20;;;;;;;9.65;3.90;;;12.80;99.90;;;;;;5091871;28;20028;-53
2022/09/07 06:39:47;;;;;;;11.93;4.60;;;12.90;99.90;;;;;;5090690;28;20036;-53
2022/09/07 06:42:13;;;;;;;10.52;4.78;;;13.00;99.90;;;;;;5088575;28;20024;-54
2022/09/07 06:44:38;;;;;;;8.25;3.85;;;13.10;99.90;;;;;;5090609;28;20035;-53
2022/09/07 06:47:04;;;;;;;10.68;4.60;;;13.10;99.90;;;;;;5089916;28;20028;-54
2022/09/07 06:49:30;;;;;;;12.55;4.70;;;13.30;99.90;;;;;;5090864;28;20020;-54
2022/09/07 06:51:56;;;;;;;18.35;4.65;;;13.50;99.90;;;;;;5090531;28;20111;-54
2022/09/07 06:54:21;;;;;;;11.27;4.13;;;13.50;99.90;;;;;;5089556;28;20020;-54
2022/09/07 06:56:47;;;;;;;17.17;5.32;;;13.60;99.90;;;;;;5090991;28;20471;-54
2022/09/07 06:59:13;;;;;;;13.82;4.95;;;13.60;99.90;;;;;;5090147;28;20827;-54
2022/09/07 07:01:39;;;;;;;12.75;6.03;;;13.80;99.90;;;;;;5089914;28;20020;-54
2022/09/07 07:04:04;;;;;;;10.70;5.47;;;13.80;99.90;;;;;;5089710;28;20024;-54
2022/09/07 07:06:35;;;;;;;14.02;6.28;;;13.90;99.90;;;;;;5089778;28;20032;-54
2022/09/07 07:09:01;;;;;;;13.00;6.35;;;14.00;99.90;;;;;;5089701;28;20029;-53
2022/09/07 07:11:29;;;;;;;12.87;6.13;;;14.10;99.90;;;;;;5089410;28;20041;-54
2022/09/07 07:13:54;;;;;;;14.48;5.78;;;14.30;99.90;;;;;;5089414;28;20270;-54
2022/09/07 07:16:20;;;;;;;15.15;5.85;;;14.40;99.90;;;;;;5089379;28;20043;-54
2022/09/07 07:18:50;;;;;;;14.63;5.68;;;14.50;99.90;;;;;;5088598;28;20035;-55
2022/09/07 07:21:17;;;;;;;13.85;6.68;;;14.60;99.90;;;;;;5088674;28;20036;-54
2022/09/07 07:23:43;;;;;;;33.77;20.33;;;14.70;99.90;;;;;;5090053;28;20498;-54
2022/09/07 07:26:12;;;;;;;11.73;6.28;;;14.80;99.90;;;;;;5089905;28;20032;-53
2022/09/07 07:28:38;;;;;;;13.77;6.03;;;15.00;99.90;;;;;;5087985;28;20024;-53
2022/09/07 07:31:05;;;;;;;11.75;5.20;;;15.00;99.90;;;;;;5089412;28;20073;-53
2022/09/07 07:33:32;;;;;;;20.35;5.38;;;15.10;99.90;;;;;;5089082;28;20016;-54
2022/09/07 07:36:19;;;;;;;14.20;5.45;;;15.10;99.90;;;;;;5086216;28;20035;-54
2022/09/07 07:38:48;;;;;;;15.73;5.00;;;15.30;99.90;;;;;;5088105;28;20035;-54
2022/09/07 07:41:15;;;;;;;16.33;5.78;;;15.50;99.90;;;;;;5087279;28;20020;-52
2022/09/07 07:43:41;;;;;;;12.65;4.78;;;15.50;99.90;;;;;;5087817;28;20032;-53
2022/09/07 07:46:10;;;;;;;12.25;5.13;;;15.70;99.90;;;;;;5088341;28;20103;-52
2022/09/07 07:48:36;;;;;;;20.50;4.95;;;15.70;99.90;;;;;;5077773;23;20068;-91
2022/09/07 07:51:17;;;;;;;9.45;4.07;;;15.90;99.90;;;;;;5066014;28;20464;-92
2022/09/07 07:53:45;;;;;;;10.32;4.78;;;16.00;99.90;;;;;;5094088;28;20093;-90
2022/09/07 07:56:12;;;;;;;10.23;4.22;;;16.00;99.90;;;;;;5068054;28;20098;-91
2022/09/07 07:58:45;;;;;;;13.43;4.88;;;16.20;99.90;;;;;;5065643;28;20025;-91
2022/09/07 08:01:16;;;;;;;10.30;4.57;;;16.30;99.90;;;;;;5071362;28;20025;-90
2022/09/07 08:04:03;;;;;;;13.82;5.18;;;16.40;99.90;;;;;;5073892;28;20048;-90
2022/09/07 08:06:29;;;;;;;11.68;4.78;;;16.50;99.90;;;;;;5063552;28;20025;-91
2022/09/07 08:08:55;;;;;;;12.73;5.10;;;16.60;99.90;;;;;;5055962;28;20021;-90
2022/09/07 08:11:22;;;;;;;11.65;4.30;;;16.80;99.90;;;;;;5053835;28;20377;-94
2022/09/07 08:13:49;;;;;;;42.38;6.72;;;17.00;99.90;;;;;;5074105;28;20029;-85
2022/09/07 08:16:16;;;;;;;14.93;5.25;;;17.20;99.90;;;;;;5073051;28;20068;-91
2022/09/07 08:18:42;;;;;;;9.48;4.57;;;17.30;99.90;;;;;;5066124;28;20029;-94
2022/09/07 08:21:14;;;;;;;14.93;5.03;;;17.40;99.90;;;;;;5067593;28;20020;-93
2022/09/07 08:23:40;;;;;;;10.18;4.35;;;17.60;99.90;;;;;;5070848;28;20445;-89
2022/09/07 08:26:07;;;;;;;10.00;4.53;;;17.80;99.90;;;;;;5068621;28;20021;-91
2022/09/07 08:28:39;;;;;;;12.70;5.97;;;18.00;99.90;;;;;;5066121;28;20013;-92
2022/09/07 08:31:10;;;;;;;10.27;4.57;;;18.10;99.90;;;;;;5066946;28;20025;-93
2022/09/07 08:33:53;;;;;;;10.98;5.03;;;18.40;99.90;;;;;;5060520;28;20021;-95
2022/09/07 08:36:20;;;;;;;15.82;4.50;;;18.40;99.90;;;;;;5062813;28;20052;-89
2022/09/07 08:38:47;;;;;;;10.57;4.95;;;18.60;99.90;;;;;;5060554;28;20033;-89
2022/09/07 08:41:49;;;;;;;14.27;5.72;;;18.80;99.90;;;;;;5061394;28;20082;-90
2022/09/07 08:44:27;;;;;;;10.82;4.57;;;19.10;99.90;;;;;;5068759;28;20483;-85
2022/09/07 08:47:20;;;;;;;15.98;8.35;;;19.50;99.90;;;;;;5078887;28;20198;-90
2022/09/07 08:50:06;;;;;;;11.20;5.75;;;19.90;99.90;;;;;;5070969;28;20029;-89
2022/09/07 08:52:51;;;;;;;10.65;4.95;;;20.30;99.90;;;;;;5059406;28;20025;-88
2022/09/07 08:55:39;;;;;;;9.25;4.45;;;20.40;98.90;;;;;;5069193;28;20037;-90
2022/09/07 08:58:25;;;;;;;12.05;5.15;;;20.30;99.40;;;;;;5070874;28;20040;-88
2022/09/07 09:00:51;;;;;;;12.68;6.05;;;20.50;99.20;;;;;;5069064;28;20093;-84
2022/09/07 09:03:29;;;;;;;13.32;6.03;;;20.40;99.90;;;;;;5063343;28;20493;-87
2022/09/07 09:06:17;;;;;;;13.38;5.20;;;20.70;99.80;;;;;;5072023;28;20066;-90
2022/09/07 09:08:56;;;;;;;13.50;5.95;;;21.50;97.60;;;;;;5070890;28;20110;-90
2022/09/07 09:11:50;;;;;;;16.20;6.10;;;22.80;93.50;;;;;;5079627;28;20040;-87
2022/09/07 09:14:31;;;;;;;11.07;5.10;;;23.00;93.60;;;;;;5082755;28;20043;-89
2022/09/07 09:17:17;;;;;;;9.40;4.93;;;23.10;91.30;;;;;;5081440;28;20044;-88
2022/09/07 09:20:05;;;;;;;11.15;5.07;;;22.80;91.60;;;;;;5068251;28;20025;-89
2022/09/07 09:22:31;;;;;;;12.52;5.65;;;23.60;91.10;;;;;;5077622;28;20047;-91
2022/09/07 09:25:27;;;;;;;9.25;5.25;;;22.90;87.00;;;;;;5072902;28;20539;-89
2022/09/07 09:27:53;;;;;;;15.30;5.93;;;22.40;91.10;;;;;;5085538;28;20089;-88
2022/09/07 09:30:21;;;;;;;65.82;51.08;;;22.50;92.60;;;;;;5097053;28;20009;-87
2022/09/07 09:33:10;;;;;;;12.88;6.13;;;22.70;94.10;;;;;;5082968;28;20036;-86
2022/09/07 09:35:39;;;;;;;10.35;4.82;;;24.20;91.40;;;;;;5075886;28;20037;-89
2022/09/07 09:38:28;;;;;;;12.52;5.32;;;23.80;91.10;;;;;;5076731;28;20024;-88
2022/09/07 09:40:54;;;;;;;;;;;24.70;90.10;;;;;;5088527;28;20108;-89
2022/09/07 09:43:25;;;;;;;10.13;5.28;;;25.00;86.80;;;;;;5074228;28;19908;-90
2022/09/07 09:45:56;;;;;;;9.93;5.05;;;25.30;84.40;;;;;;5067692;28;20025;-92
2022/09/07 09:48:43;;;;;;;11.55;5.47;;;25.70;80.90;;;;;;5061965;28;20492;-92
2022/09/07 09:51:17;;;;;;;11.32;4.65;;;25.20;83.30;;;;;;5061740;28;20032;-94
2022/09/07 09:54:26;;;;;;;12.57;5.72;;;24.30;86.70;;;;;;5060933;28;20021;-91
2022/09/07 09:56:55;;;;;;;10.13;5.10;;;24.10;88.50;;;;;;5052341;28;20607;-93
2022/09/07 09:59:27;;;;;;;9.63;5.05;;;24.00;89.80;;;;;;5069228;28;20025;-94
2022/09/07 10:01:54;;;;;;;11.38;5.32;;;25.40;80.90;;;;;;5075603;28;20032;-92
2022/09/07 10:04:33;;;;;;;10.07;5.25;;;25.70;87.40;;;;;;5072010;28;20391;-92
2022/09/07 10:07:08;;;;;;;10.70;4.97;;;25.70;83.50;;;;;;5079761;28;20017;-92
2022/09/07 10:09:41;;;;;;;14.38;5.28;;;25.70;80.00;;;;;;5067267;28;20026;-91
2022/09/07 10:12:23;;;;;;;16.15;4.95;;;26.20;79.30;;;;;;5066211;28;20542;-91
2022/09/07 10:14:50;;;;;;;11.90;5.20;;;26.70;78.10;;;;;;5077127;28;20027;-92
2022/09/07 10:17:33;;;;;;;7.97;4.75;;;27.00;81.10;;;;;;5081600;28;20036;-88
2022/09/07 10:20:31;;;;;;;9.60;4.78;;;25.70;77.20;;;;;;5068916;28;20877;-89
2022/09/07 10:22:59;;;;;;;10.35;4.97;;;26.30;77.10;;;;;;5069542;28;20076;-94
2022/09/07 10:25:29;;;;;;;11.88;4.95;;;25.70;78.40;;;;;;5069274;28;20025;-91
2022/09/07 10:28:08;;;;;;;8.55;4.65;;;25.40;79.00;;;;;;5067106;28;20378;-88
2022/09/07 10:30:49;;;;;;;9.60;5.25;;;25.30;81.70;;;;;;5068944;28;20031;-86
2022/09/07 10:33:21;;;;;;;9.65;4.78;;;25.30;80.20;;;;;;5072517;28;20091;-89
2022/09/07 10:36:02;;;;;;;13.43;4.78;;;25.70;85.20;;;;;;5068424;28;20036;-93
2022/09/07 10:38:39;;;;;;;10.13;4.72;;;27.30;76.10;;;;;;5076308;28;20443;-88
2022/09/07 10:41:09;;;;;;;8.50;4.60;;;26.90;77.10;;;;;;5071019;28;20025;-90
2022/09/07 10:43:38;;;;;;;11.60;4.70;;;27.30;73.20;;;;;;5076716;28;20491;-89
2022/09/07 10:46:46;;;;;;;12.95;4.65;;;27.60;70.60;;;;;;5064577;28;20083;-89
2022/09/07 10:49:27;;;;;;;13.23;5.03;;;27.70;73.00;;;;;;5062812;28;20056;-90
2022/09/07 10:52:25;;;;;;;11.13;4.78;;;27.90;70.90;;;;;;5063733;28;20029;-90
2022/09/07 10:54:58;;;;;;;11.18;4.30;;;27.90;69.10;;;;;;5033251;28;20037;-89
2022/09/07 10:57:42;;;;;;;10.52;5.05;;;28.00;70.70;;;;;;5065513;28;20025;-87
2022/09/07 11:00:17;;;;;;;9.35;4.20;;;27.20;74.60;;;;;;5065770;28;20029;-90
2022/09/07 11:03:07;;;;;;;8.80;4.70;;;27.30;75.10;;;;;;5076369;28;20031;-90
2022/09/07 11:05:53;;;;;;;11.18;4.75;;;27.30;68.00;;;;;;5074679;28;20032;-88
2022/09/07 11:08:42;;;;;;;9.65;4.60;;;27.20;72.60;;;;;;5073577;28;20050;-88
2022/09/07 11:11:29;;;;;;;14.10;4.65;;;27.70;66.70;;;;;;5073075;28;20040;-89
2022/09/07 11:14:03;;;;;;;8.50;4.25;;;27.60;72.30;;;;;;5069828;28;20028;-90
2022/09/07 11:16:33;;;;;;;9.38;4.53;;;27.30;71.30;;;;;;5066840;28;20029;-90
2022/09/07 11:19:02;;;;;;;10.98;4.80;;;27.00;68.10;;;;;;5065417;28;20025;-90
2022/09/07 11:21:35;;;;;;;10.15;3.95;;;26.60;67.60;;;;;;5066565;28;20150;-87
2022/09/07 11:24:08;;;;;;;11.30;3.92;;;27.30;65.30;;;;;;5068836;28;20020;-88
2022/09/07 11:26:52;;;;;;;7.95;4.40;;;27.40;68.50;;;;;;5071958;28;20024;-88
2022/09/07 11:29:42;;;;;;;8.60;4.72;;;28.10;69.30;;;;;;5062312;28;20024;-88
2022/09/07 11:32:24;;;;;;;9.85;4.55;;;27.60;65.20;;;;;;5061784;28;20021;-89
2022/09/07 11:34:57;;;;;;;9.48;3.30;;;27.60;71.70;;;;;;5066823;28;20021;-88
2022/09/07 11:37:32;;;;;;;5.65;3.40;;;27.90;65.80;;;;;;5067577;28;20092;-90
2022/09/07 11:40:07;;;;;;;7.72;3.50;;;28.10;62.50;;;;;;5065207;28;20025;-90
2022/09/07 11:42:58;;;;;;;13.13;4.30;;;28.00;69.10;;;;;;5067703;28;20024;-89
2022/09/07 11:45:51;;;;;;;6.43;3.90;;;27.70;69.90;;;;;;5103779;28;20017;-90
2022/09/07 11:48:39;;;;;;;7.57;3.55;;;28.10;70.30;;;;;;5069037;28;20076;-91
2022/09/07 11:51:40;;;;;;;7.15;4.10;;;28.10;68.10;;;;;;5064094;28;20028;-90
2022/09/07 11:54:43;;;;;;;7.45;3.85;;;28.50;72.30;;;;;;5062497;28;20115;-91
2022/09/07 11:57:54;;;;;;;7.80;3.97;;;27.90;64.40;;;;;;5065912;28;20044;-90
2022/09/07 12:00:39;;;;;;;7.20;3.30;;;27.60;67.00;;;;;;5056814;28;20035;-88
2022/09/07 12:03:48;;;;;;;7.03;3.80;;;27.60;69.30;;;;;;5061421;28;20025;-91
2022/09/07 12:06:29;;;;;;;9.07;3.67;;;28.10;69.30;;;;;;5059952;28;20035;-90
2022/09/07 12:09:31;;;;;;;8.18;4.03;;;28.40;71.40;;;;;;5058971;28;20017;-87
2022/09/07 12:12:07;;;;;;;6.50;3.75;;;28.50;65.40;;;;;;5057117;28;20033;-86
2022/09/07 12:14:51;;;;;;;7.13;3.35;;;28.70;69.50;;;;;;5057775;28;20531;-88
2022/09/07 12:17:26;;;;;;;6.95;3.97;;;28.90;64.90;;;;;;5056455;28;20048;-88
2022/09/07 12:20:24;;;;;;;5.97;3.08;;;28.50;67.80;;;;;;5056376;28;20488;-89
2022/09/07 12:23:05;;;;;;;7.43;3.85;;;28.60;68.10;;;;;;5042650;28;20029;-88
2022/09/07 12:25:33;;;;;;;7.45;3.75;;;28.30;64.80;;;;;;5055218;28;20075;-87
2022/09/07 12:27:59;;;;;;;13.25;4.03;;;28.40;67.20;;;;;;5055179;28;20033;-88
2022/09/07 12:30:25;;;;;;;8.85;3.95;;;28.70;70.70;;;;;;5055410;28;20372;-86
2022/09/07 12:32:54;;;;;;;6.80;3.70;;;28.90;67.70;;;;;;5058473;28;20563;-85
2022/09/07 12:35:25;;;;;;;10.82;4.15;;;28.80;66.20;;;;;;5056270;28;20037;-88
2022/09/07 12:37:52;;;;;;;13.88;3.38;;;28.80;66.90;;;;;;5058874;28;20380;-86
2022/09/07 12:40:27;;;;;;;;;;;29.20;68.30;;;;;;5061425;28;20593;-87
2022/09/07 12:43:12;;;;;;;8.95;3.88;;;29.20;66.40;;;;;;5073830;28;19904;-88
2022/09/07 12:45:37;;;;;;;23.45;17.92;;;29.20;65.60;;;;;;5080191;28;20013;-85
2022/09/07 12:48:13;;;;;;;11.35;3.78;;;29.30;62.70;;;;;;5083369;28;20059;-88
2022/09/07 12:51:06;;;;;;;8.65;3.72;;;29.20;60.60;;;;;;5086739;28;20078;-89
2022/09/07 12:54:18;;;;;;;8.15;3.53;;;28.80;63.60;;;;;;5071885;28;20024;-92
2022/09/07 12:57:24;;;;;;;7.82;3.33;;;28.90;62.80;;;;;;5065081;28;20044;-92
2022/09/07 13:00:09;;;;;;;6.07;3.35;;;28.90;64.80;;;;;;5067893;28;20021;-88
2022/09/07 13:02:53;;;;;;;8.27;3.80;;;29.00;62.50;;;;;;5081649;28;20104;-90
2022/09/07 13:05:44;;;;;;;9.05;3.47;;;29.00;63.00;;;;;;5063933;28;20029;-86
2022/09/07 13:08:49;;;;;;;8.45;3.63;;;29.30;64.00;;;;;;5061874;28;20021;-88
2022/09/07 13:11:32;;;;;;;6.45;3.55;;;29.40;62.40;;;;;;4993422;28;20557;-89
2022/09/07 13:14:20;;;;;;;10.05;3.60;;;29.30;62.60;;;;;;5067445;28;20303;-87
2022/09/07 13:17:07;;;;;;;5.38;3.50;;;29.40;65.10;;;;;;5070779;28;20029;-90